createdAt,value
2022-10-28T00:00:22.038Z,1008.29
2022-10-28T00:01:22.122Z,1008.25
2022-10-28T00:02:22.125Z,1008.28
2022-10-28T00:03:22.056Z,1008.22
2022-10-28T00:04:22.070Z,1008.23
2022-10-28T00:05:22.049Z,1008.23
2022-10-28T00:06:22.055Z,1008.28
2022-10-28T00:07:22.047Z,1008.22
2022-10-28T00:08:22.049Z,1008.22
2022-10-28T00:09:22.041Z,1008.22
2022-10-28T00:10:22.135Z,1008.19
2022-10-28T00:11:22.094Z,1008.2
2022-10-28T00:12:22.063Z,1008.19
2022-10-28T00:13:22.036Z,1008.18
2022-10-28T00:14:22.053Z,1008.16
2022-10-28T00:15:22.028Z,1008.15
2022-10-28T00:16:22.048Z,1008.24
2022-10-28T00:17:22.051Z,1008.22
2022-10-28T00:18:22.034Z,1008.2
2022-10-28T00:19:22.076Z,1008.19
2022-10-28T00:20:22.057Z,1008.16
2022-10-28T00:21:22.057Z,1008.18
2022-10-28T00:22:22.063Z,1008.19
2022-10-28T00:23:22.165Z,1008.15
2022-10-28T00:24:22.025Z,1008.16
2022-10-28T00:25:22.048Z,1008.2
2022-10-28T00:26:22.043Z,1008.14
2022-10-28T00:27:22.068Z,1008.14
2022-10-28T00:28:22.052Z,1008.17
2022-10-28T00:29:22.046Z,1008.09
2022-10-28T00:30:22.055Z,1008.14
2022-10-28T00:31:22.141Z,1008.07
2022-10-28T00:32:22.325Z,1008.03
2022-10-28T00:33:22.032Z,1008.07
2022-10-28T00:34:22.148Z,1008.05
2022-10-28T00:35:22.359Z,1008.07
2022-10-28T00:36:22.042Z,1008.07
2022-10-28T00:37:22.070Z,1008.1
2022-10-28T00:38:22.114Z,1008.09
2022-10-28T00:39:22.049Z,1008.06
2022-10-28T00:40:22.043Z,1008.08
2022-10-28T00:41:22.045Z,1008.05
2022-10-28T00:42:22.337Z,1008.02
2022-10-28T00:43:22.509Z,1008.09
2022-10-28T00:44:22.052Z,1008.02
2022-10-28T00:45:22.223Z,1008.07
2022-10-28T00:46:22.093Z,1008.09
2022-10-28T00:47:22.093Z,1008.06
2022-10-28T00:48:22.045Z,1008.06
2022-10-28T00:49:22.037Z,1008.04
2022-10-28T00:50:22.041Z,1008.08
2022-10-28T00:51:22.043Z,1008.07
2022-10-28T00:52:22.088Z,1008.03
2022-10-28T00:53:22.046Z,1008.01
2022-10-28T00:54:22.079Z,1007.97
2022-10-28T00:55:22.058Z,1008.04
2022-10-28T00:56:22.123Z,1007.97
2022-10-28T00:57:22.068Z,1007.96
2022-10-28T00:58:22.271Z,1007.96
2022-10-28T00:59:22.035Z,1007.97
2022-10-28T01:00:22.058Z,1007.97
2022-10-28T01:01:22.115Z,1007.94
2022-10-28T01:02:22.120Z,1007.91
2022-10-28T01:03:22.046Z,1007.96
2022-10-28T01:04:22.059Z,1007.94
2022-10-28T01:05:22.086Z,1007.97
2022-10-28T01:06:22.058Z,1007.96
2022-10-28T01:07:22.072Z,1007.95
2022-10-28T01:08:22.053Z,1007.93
2022-10-28T01:09:22.170Z,1007.91
2022-10-28T01:10:22.091Z,1007.89
2022-10-28T01:11:22.083Z,1007.87
2022-10-28T01:12:22.047Z,1007.88
2022-10-28T01:13:22.072Z,1007.86
2022-10-28T01:14:22.076Z,1007.83
2022-10-28T01:15:22.048Z,1007.86
2022-10-28T01:16:22.045Z,1007.79
2022-10-28T01:17:22.660Z,1007.78
2022-10-28T01:18:22.065Z,1007.75
2022-10-28T01:19:22.065Z,1007.77
2022-10-28T01:20:22.064Z,1007.72
2022-10-28T01:21:22.056Z,1007.78
2022-10-28T01:22:22.103Z,1007.73
2022-10-28T01:23:22.057Z,1007.73
2022-10-28T01:24:22.042Z,1007.7
2022-10-28T01:25:22.055Z,1007.72
2022-10-28T01:26:22.046Z,1007.69
2022-10-28T01:27:22.062Z,1007.66
2022-10-28T01:28:22.694Z,1007.64
2022-10-28T01:29:22.662Z,1007.65
2022-10-28T01:30:22.725Z,1007.65
2022-10-28T01:31:22.831Z,1007.59
2022-10-28T01:32:21.989Z,1007.6
2022-10-28T01:33:22.323Z,1007.57
2022-10-28T01:34:22.570Z,1007.55
2022-10-28T01:35:21.948Z,1007.57
2022-10-28T01:36:22.143Z,1007.53
2022-10-28T01:37:22.492Z,1007.54
2022-10-28T01:38:22.388Z,1007.54
2022-10-28T01:39:22.164Z,1007.53
2022-10-28T01:40:23.051Z,1007.53
2022-10-28T01:41:22.775Z,1007.54
2022-10-28T01:42:22.047Z,1007.51
2022-10-28T01:43:22.040Z,1007.43
2022-10-28T01:44:22.053Z,1007.47
2022-10-28T01:45:22.080Z,1007.45
2022-10-28T01:46:22.054Z,1007.47
2022-10-28T01:47:22.051Z,1007.41
2022-10-28T01:48:22.039Z,1007.42
2022-10-28T01:49:22.052Z,1007.38
2022-10-28T01:50:22.050Z,1007.41
2022-10-28T01:51:22.045Z,1007.4
2022-10-28T01:52:22.106Z,1007.38
2022-10-28T01:53:22.060Z,1007.38
2022-10-28T01:54:22.056Z,1007.36
2022-10-28T01:55:22.048Z,1007.33
2022-10-28T01:56:22.083Z,1007.32
2022-10-28T01:57:22.050Z,1007.34
2022-10-28T01:58:22.121Z,1007.28
2022-10-28T01:59:22.052Z,1007.28
2022-10-28T02:00:22.286Z,1007.24
2022-10-28T02:01:22.121Z,1007.32
2022-10-28T02:02:22.284Z,1007.3
2022-10-28T02:03:22.208Z,1007.26
2022-10-28T02:04:22.486Z,1007.29
2022-10-28T02:05:22.305Z,1007.36
2022-10-28T02:06:22.412Z,1007.32
2022-10-28T02:07:22.515Z,1007.3
2022-10-28T02:08:22.190Z,1007.3
2022-10-28T02:09:22.045Z,1007.28
2022-10-28T02:10:22.238Z,1007.23
2022-10-28T02:11:22.062Z,1007.24
2022-10-28T02:12:22.362Z,1007.18
2022-10-28T02:13:22.057Z,1007.19
2022-10-28T02:14:22.624Z,1007.2
2022-10-28T02:15:22.253Z,1007.13
2022-10-28T02:16:22.197Z,1007.13
2022-10-28T02:17:22.498Z,1007.16
2022-10-28T02:18:22.158Z,1007.1
2022-10-28T02:19:22.280Z,1007.09
2022-10-28T02:20:22.190Z,1007.16
2022-10-28T02:21:22.446Z,1007.23
2022-10-28T02:22:22.193Z,1007.29
2022-10-28T02:23:22.042Z,1007.25
2022-10-28T02:24:22.330Z,1007.26
2022-10-28T02:25:22.135Z,1007.22
2022-10-28T02:26:22.371Z,1007.26
2022-10-28T02:27:22.118Z,1007.27
2022-10-28T02:28:22.414Z,1007.29
2022-10-28T02:29:22.138Z,1007.25
2022-10-28T02:30:22.102Z,1007.22
2022-10-28T02:31:22.045Z,1007.29
2022-10-28T02:32:22.282Z,1007.23
2022-10-28T02:33:22.040Z,1007.21
2022-10-28T02:34:22.059Z,1007.25
2022-10-28T02:35:22.174Z,1007.16
2022-10-28T02:36:22.051Z,1007.23
2022-10-28T02:37:22.067Z,1007.21
2022-10-28T02:38:22.100Z,1007.21
2022-10-28T02:39:22.342Z,1007.22
2022-10-28T02:40:22.094Z,1007.18
2022-10-28T02:41:22.053Z,1007.14
2022-10-28T02:42:22.053Z,1007.14
2022-10-28T02:43:22.042Z,1007.11
2022-10-28T02:44:22.047Z,1007.13
2022-10-28T02:45:22.080Z,1007.11
2022-10-28T02:46:22.050Z,1007.14
2022-10-28T02:47:22.057Z,1007.14
2022-10-28T02:48:22.083Z,1007.14
2022-10-28T02:49:22.123Z,1007.18
2022-10-28T02:50:22.148Z,1007.17
2022-10-28T02:51:22.041Z,1007.14
2022-10-28T02:52:22.083Z,1007.2
2022-10-28T02:53:22.207Z,1007.17
2022-10-28T02:54:22.049Z,1007.13
2022-10-28T02:55:22.077Z,1007.15
2022-10-28T02:56:22.040Z,1007.11
2022-10-28T02:57:22.040Z,1007.08
2022-10-28T02:58:22.057Z,1007.04
2022-10-28T02:59:22.100Z,1007.1
2022-10-28T03:00:22.078Z,1007.08
2022-10-28T03:01:22.158Z,1007.07
2022-10-28T03:02:22.149Z,1007.06
2022-10-28T03:03:22.137Z,1007.08
2022-10-28T03:04:22.130Z,1007.09
2022-10-28T03:05:22.054Z,1007.1
2022-10-28T03:06:22.098Z,1007.07
2022-10-28T03:07:22.037Z,1007.06
2022-10-28T03:08:22.049Z,1007.04
2022-10-28T03:09:22.056Z,1007.06
2022-10-28T03:10:22.049Z,1007.07
2022-10-28T03:11:22.040Z,1007.04
2022-10-28T03:12:22.080Z,1006.99
2022-10-28T03:13:22.058Z,1007
2022-10-28T03:14:22.050Z,1006.99
2022-10-28T03:15:22.064Z,1006.97
2022-10-28T03:16:22.033Z,1006.98
2022-10-28T03:17:22.052Z,1007.01
2022-10-28T03:18:22.038Z,1006.96
2022-10-28T03:19:22.038Z,1006.93
2022-10-28T03:20:22.063Z,1006.9
2022-10-28T03:21:22.051Z,1006.97
2022-10-28T03:22:22.049Z,1006.95
2022-10-28T03:23:22.050Z,1006.93
2022-10-28T03:24:22.171Z,1006.84
2022-10-28T03:25:22.055Z,1006.9
2022-10-28T03:26:22.053Z,1006.85
2022-10-28T03:27:22.049Z,1006.87
2022-10-28T03:28:22.204Z,1006.89
2022-10-28T03:29:22.037Z,1006.89
2022-10-28T03:30:22.040Z,1006.92
2022-10-28T03:31:22.038Z,1006.89
2022-10-28T03:33:22.057Z,1006.88
2022-10-28T03:34:22.044Z,1006.86
2022-10-28T03:35:22.121Z,1006.85
2022-10-28T03:36:22.175Z,1006.76
2022-10-28T03:37:22.055Z,1006.81
2022-10-28T03:38:22.066Z,1006.76
2022-10-28T03:39:22.051Z,1006.75
2022-10-28T03:40:22.051Z,1006.77
2022-10-28T03:41:22.045Z,1006.74
2022-10-28T03:42:22.041Z,1006.73
2022-10-28T03:43:22.043Z,1006.77
2022-10-28T03:44:22.035Z,1006.73
2022-10-28T03:45:22.089Z,1006.75
2022-10-28T03:46:22.324Z,1006.76
2022-10-28T03:47:22.043Z,1006.76
2022-10-28T03:48:22.055Z,1006.7
2022-10-28T03:49:22.357Z,1006.73
2022-10-28T03:50:22.151Z,1006.64
2022-10-28T03:51:22.148Z,1006.67
2022-10-28T03:52:22.171Z,1006.62
2022-10-28T03:53:22.054Z,1006.59
2022-10-28T03:54:22.049Z,1006.65
2022-10-28T03:55:22.075Z,1006.63
2022-10-28T03:56:22.302Z,1006.62
2022-10-28T03:57:22.058Z,1006.62
2022-10-28T03:58:22.066Z,1006.69
2022-10-28T03:59:23.291Z,1006.65
2022-10-28T04:00:22.058Z,1006.67
2022-10-28T04:01:22.170Z,1006.64
2022-10-28T04:02:22.127Z,1006.64
2022-10-28T04:03:22.048Z,1006.66
2022-10-28T04:04:22.039Z,1006.64
2022-10-28T04:05:22.069Z,1006.63
2022-10-28T04:06:22.058Z,1006.66
2022-10-28T04:07:22.041Z,1006.62
2022-10-28T04:08:22.040Z,1006.66
2022-10-28T04:09:22.054Z,1006.66
2022-10-28T04:10:22.082Z,1006.67
2022-10-28T04:11:22.167Z,1006.68
2022-10-28T04:12:22.043Z,1006.73
2022-10-28T04:13:22.123Z,1006.73
2022-10-28T04:14:22.039Z,1006.66
2022-10-28T04:15:22.067Z,1006.64
2022-10-28T04:16:22.054Z,1006.68
2022-10-28T04:17:22.040Z,1006.67
2022-10-28T04:18:22.060Z,1006.6
2022-10-28T04:19:22.041Z,1006.62
2022-10-28T04:20:22.107Z,1006.58
2022-10-28T04:21:22.401Z,1006.63
2022-10-28T04:22:22.117Z,1006.66
2022-10-28T04:23:22.326Z,1006.64
2022-10-28T04:24:22.099Z,1006.64
2022-10-28T04:25:22.280Z,1006.67
2022-10-28T04:26:22.332Z,1006.62
2022-10-28T04:27:22.063Z,1006.6
2022-10-28T04:28:22.289Z,1006.56
2022-10-28T04:29:22.590Z,1006.52
2022-10-28T04:30:22.518Z,1006.53
2022-10-28T04:31:22.274Z,1006.54
2022-10-28T04:32:22.481Z,1006.53
2022-10-28T04:33:22.042Z,1006.52
2022-10-28T04:34:22.188Z,1006.5
2022-10-28T04:35:22.399Z,1006.55
2022-10-28T04:36:22.691Z,1006.52
2022-10-28T04:37:23.284Z,1006.52
2022-10-28T04:38:22.373Z,1006.56
2022-10-28T04:39:22.054Z,1006.54
2022-10-28T04:40:22.027Z,1006.58
2022-10-28T04:41:22.339Z,1006.5
2022-10-28T04:42:22.675Z,1006.53
2022-10-28T04:43:22.816Z,1006.56
2022-10-28T04:44:22.624Z,1006.59
2022-10-28T04:45:22.718Z,1006.57
2022-10-28T04:46:22.026Z,1006.58
2022-10-28T04:47:22.360Z,1006.54
2022-10-28T04:48:22.576Z,1006.5
2022-10-28T04:49:21.890Z,1006.5
2022-10-28T04:50:22.213Z,1006.49
2022-10-28T04:51:22.471Z,1006.46
2022-10-28T04:52:21.911Z,1006.41
2022-10-28T04:53:22.154Z,1006.4
2022-10-28T04:54:23.021Z,1006.4
2022-10-28T04:55:22.763Z,1006.42
2022-10-28T04:56:22.085Z,1006.37
2022-10-28T04:57:22.063Z,1006.35
2022-10-28T04:58:22.047Z,1006.36
2022-10-28T04:59:22.083Z,1006.32
2022-10-28T05:00:22.056Z,1006.35
2022-10-28T05:01:22.135Z,1006.33
2022-10-28T05:02:22.113Z,1006.42
2022-10-28T05:03:22.043Z,1006.36
2022-10-28T05:04:22.056Z,1006.44
2022-10-28T05:05:22.044Z,1006.47
2022-10-28T05:06:22.072Z,1006.51
2022-10-28T05:07:25.047Z,1006.52
2022-10-28T05:08:22.078Z,1006.58
2022-10-28T05:09:22.059Z,1006.6
2022-10-28T05:10:22.055Z,1006.65
2022-10-28T05:11:22.337Z,1006.68
2022-10-28T05:12:22.059Z,1006.74
2022-10-28T05:13:22.056Z,1006.74
2022-10-28T05:14:22.046Z,1006.73
2022-10-28T05:15:22.070Z,1006.74
2022-10-28T05:16:22.071Z,1006.71
2022-10-28T05:17:22.064Z,1006.73
2022-10-28T05:18:22.054Z,1006.69
2022-10-28T05:19:22.061Z,1006.67
2022-10-28T05:20:22.090Z,1006.72
2022-10-28T05:21:22.391Z,1006.7
2022-10-28T05:22:22.052Z,1006.7
2022-10-28T05:23:23.808Z,1006.68
2022-10-28T05:24:22.050Z,1006.67
2022-10-28T05:25:22.175Z,1006.67
2022-10-28T05:26:22.050Z,1006.63
2022-10-28T05:27:22.140Z,1006.63
2022-10-28T05:28:22.051Z,1006.64
2022-10-28T05:29:22.273Z,1006.58
2022-10-28T05:30:22.046Z,1006.53
2022-10-28T05:31:22.336Z,1006.54
2022-10-28T05:32:22.124Z,1006.52
2022-10-28T05:33:22.053Z,1006.51
2022-10-28T05:34:22.216Z,1006.56
2022-10-28T05:35:22.510Z,1006.58
2022-10-28T05:36:22.325Z,1006.58
2022-10-28T05:37:22.104Z,1006.54
2022-10-28T05:38:22.405Z,1006.54
2022-10-28T05:39:22.205Z,1006.53
2022-10-28T05:40:22.464Z,1006.54
2022-10-28T05:41:24.329Z,1006.55
2022-10-28T05:42:22.374Z,1006.54
2022-10-28T05:43:22.156Z,1006.57
2022-10-28T05:44:22.360Z,1006.51
2022-10-28T05:45:22.081Z,1006.49
2022-10-28T05:46:22.039Z,1006.49
2022-10-28T05:47:22.229Z,1006.48
2022-10-28T05:48:22.039Z,1006.46
2022-10-28T05:49:22.072Z,1006.51
2022-10-28T05:50:22.129Z,1006.48
2022-10-28T05:51:22.355Z,1006.45
2022-10-28T05:52:22.038Z,1006.49
2022-10-28T05:53:22.049Z,1006.48
2022-10-28T05:54:22.094Z,1006.53
2022-10-28T05:55:22.102Z,1006.5
2022-10-28T05:56:22.041Z,1006.54
2022-10-28T05:57:22.042Z,1006.56
2022-10-28T05:58:22.043Z,1006.55
2022-10-28T05:59:22.074Z,1006.52
2022-10-28T06:00:22.040Z,1006.58
2022-10-28T06:01:22.117Z,1006.6
2022-10-28T06:02:22.047Z,1006.53
2022-10-28T06:03:23.368Z,1006.59
2022-10-28T06:04:22.116Z,1006.6
2022-10-28T06:05:22.047Z,1006.55
2022-10-28T06:06:22.049Z,1006.58
2022-10-28T06:07:22.052Z,1006.58
2022-10-28T06:08:22.047Z,1006.6
2022-10-28T06:09:22.043Z,1006.6
2022-10-28T06:10:22.038Z,1006.6
2022-10-28T06:11:20.510Z,1006.64
2022-10-28T06:12:20.547Z,1006.59
2022-10-28T06:13:20.524Z,1006.66
2022-10-28T06:14:20.531Z,1006.63
2022-10-28T06:15:20.527Z,1006.65
2022-10-28T06:16:20.516Z,1006.71
2022-10-28T06:17:20.524Z,1006.75
2022-10-28T06:18:21.554Z,1006.72
2022-10-28T06:19:20.518Z,1006.79
2022-10-28T06:20:20.530Z,1006.79
2022-10-28T06:21:20.528Z,1006.77
2022-10-28T06:22:20.502Z,1006.75
2022-10-28T06:23:20.530Z,1006.78
2022-10-28T06:24:20.530Z,1006.83
2022-10-28T06:25:20.562Z,1006.83
2022-10-28T06:26:20.539Z,1006.81
2022-10-28T06:27:20.528Z,1006.84
2022-10-28T06:28:20.531Z,1006.81
2022-10-28T06:29:20.612Z,1006.85
2022-10-28T06:30:20.517Z,1006.87
2022-10-28T06:31:20.530Z,1006.86
2022-10-28T06:32:20.518Z,1006.93
2022-10-28T06:33:20.531Z,1006.97
2022-10-28T06:34:20.570Z,1006.93
2022-10-28T06:35:20.550Z,1006.97
2022-10-28T06:36:20.546Z,1006.97
2022-10-28T06:37:20.552Z,1007
2022-10-28T06:38:20.553Z,1006.96
2022-10-28T06:39:20.713Z,1006.96
2022-10-28T06:40:20.622Z,1006.98
2022-10-28T06:41:20.623Z,1007.04
2022-10-28T06:42:20.543Z,1007.04
2022-10-28T06:43:20.539Z,1007.12
2022-10-28T06:44:20.537Z,1007.15
2022-10-28T06:45:20.545Z,1007.17
2022-10-28T06:46:20.562Z,1007.18
2022-10-28T06:47:22.068Z,1007.18
2022-10-28T06:48:22.455Z,1007.2
2022-10-28T06:49:22.376Z,1007.21
2022-10-28T06:50:22.335Z,1007.21
2022-10-28T06:51:22.113Z,1007.23
2022-10-28T06:52:22.337Z,1007.23
2022-10-28T06:53:22.062Z,1007.22
2022-10-28T06:54:22.380Z,1007.28
2022-10-28T06:55:22.345Z,1007.31
2022-10-28T06:56:22.667Z,1007.31
2022-10-28T06:57:25.691Z,1007.37
2022-10-28T06:58:22.596Z,1007.32
2022-10-28T06:59:22.373Z,1007.37
2022-10-28T07:00:22.635Z,1007.38
2022-10-28T07:01:22.875Z,1007.38
2022-10-28T07:02:23.244Z,1007.38
2022-10-28T07:03:22.103Z,1007.42
2022-10-28T07:04:22.256Z,1007.34
2022-10-28T07:05:22.124Z,1007.35
2022-10-28T07:06:22.413Z,1007.36
2022-10-28T07:07:22.070Z,1007.35
2022-10-28T07:08:22.349Z,1007.36
2022-10-28T07:09:22.288Z,1007.4
2022-10-28T07:10:22.077Z,1007.44
2022-10-28T07:11:22.244Z,1007.43
2022-10-28T07:12:22.484Z,1007.44
2022-10-28T07:13:22.078Z,1007.44
2022-10-28T07:14:22.083Z,1007.45
2022-10-28T07:15:22.079Z,1007.44
2022-10-28T07:16:22.066Z,1007.44
2022-10-28T07:17:22.095Z,1007.44
2022-10-28T07:18:22.072Z,1007.41
2022-10-28T07:19:25.610Z,1007.44
2022-10-28T07:20:22.079Z,1007.44
2022-10-28T07:21:22.086Z,1007.46
2022-10-28T07:22:29.098Z,1007.47
2022-10-28T07:23:22.183Z,1007.5
2022-10-28T07:24:22.158Z,1007.49
2022-10-28T07:25:22.093Z,1007.55
2022-10-28T07:26:22.179Z,1007.53
2022-10-28T07:27:22.092Z,1007.51
2022-10-28T07:28:22.081Z,1007.53
2022-10-28T07:29:22.087Z,1007.52
2022-10-28T07:30:22.089Z,1007.47
2022-10-28T07:31:22.081Z,1007.46
2022-10-28T07:32:22.089Z,1007.43
2022-10-28T07:33:22.090Z,1007.41
2022-10-28T07:34:28.104Z,1007.37
2022-10-28T07:35:22.186Z,1007.32
2022-10-28T07:36:22.115Z,1007.37
2022-10-28T07:37:22.106Z,1007.39
2022-10-28T07:38:22.102Z,1007.43
2022-10-28T07:39:22.086Z,1007.45
2022-10-28T07:40:22.088Z,1007.5
2022-10-28T07:41:22.088Z,1007.5
2022-10-28T07:42:22.071Z,1007.55
2022-10-28T07:43:22.086Z,1007.59
2022-10-28T07:44:22.092Z,1007.54
2022-10-28T07:45:22.090Z,1007.56
2022-10-28T07:46:22.204Z,1007.55
2022-10-28T07:47:22.088Z,1007.59
2022-10-28T07:48:22.091Z,1007.61
2022-10-28T07:49:22.103Z,1007.68
2022-10-28T07:50:22.146Z,1007.67
2022-10-28T07:51:22.090Z,1007.69
2022-10-28T07:52:22.077Z,1007.66
2022-10-28T07:53:28.759Z,1007.66
2022-10-28T07:54:22.081Z,1007.68
2022-10-28T07:55:22.118Z,1007.66
2022-10-28T07:56:22.516Z,1007.64
2022-10-28T07:57:22.814Z,1007.69
2022-10-28T07:58:23.411Z,1007.7
2022-10-28T07:59:28.706Z,1007.69
2022-10-28T08:00:21.962Z,1007.71
2022-10-28T08:01:22.300Z,1007.68
2022-10-28T08:02:22.521Z,1007.68
2022-10-28T08:03:25.461Z,1007.64
2022-10-28T08:04:22.032Z,1007.67
2022-10-28T08:05:22.311Z,1007.64
2022-10-28T08:06:22.705Z,1007.69
2022-10-28T08:07:22.696Z,1007.65
2022-10-28T08:08:22.849Z,1007.7
2022-10-28T08:09:23.260Z,1007.72
2022-10-28T08:10:22.080Z,1007.7
2022-10-28T08:11:22.062Z,1007.67
2022-10-28T08:12:22.068Z,1007.69
2022-10-28T08:13:22.083Z,1007.64
2022-10-28T08:14:22.051Z,1007.61
2022-10-28T08:15:22.052Z,1007.65
2022-10-28T08:16:22.048Z,1007.62
2022-10-28T08:17:22.055Z,1007.59
2022-10-28T08:18:22.062Z,1007.58
2022-10-28T08:19:22.056Z,1007.59
2022-10-28T08:20:22.071Z,1007.57
2022-10-28T08:21:22.085Z,1007.59
2022-10-28T08:22:22.045Z,1007.63
2022-10-28T08:23:22.055Z,1007.6
2022-10-28T08:24:22.204Z,1007.63
2022-10-28T08:25:22.049Z,1007.62
2022-10-28T08:26:22.049Z,1007.65
2022-10-28T08:27:22.060Z,1007.68
2022-10-28T08:28:22.046Z,1007.68
2022-10-28T08:29:24.191Z,1007.66
2022-10-28T08:30:22.144Z,1007.68
2022-10-28T08:31:22.043Z,1007.68
2022-10-28T08:32:22.200Z,1007.67
2022-10-28T08:33:22.053Z,1007.66
2022-10-28T08:34:23.068Z,1007.64
2022-10-28T08:35:22.042Z,1007.68
2022-10-28T08:36:22.044Z,1007.68
2022-10-28T08:37:22.107Z,1007.7
2022-10-28T08:38:22.049Z,1007.7
2022-10-28T08:39:22.058Z,1007.65
2022-10-28T08:40:22.048Z,1007.68
2022-10-28T08:41:22.094Z,1007.66
2022-10-28T08:42:22.274Z,1007.73
2022-10-28T08:43:46.128Z,1007.69
2022-10-28T08:44:22.281Z,1007.77
2022-10-28T08:45:22.137Z,1007.76
2022-10-28T08:46:22.182Z,1007.74
2022-10-28T08:47:22.143Z,1007.77
2022-10-28T08:48:22.043Z,1007.74
2022-10-28T08:49:22.332Z,1007.69
2022-10-28T08:50:22.042Z,1007.7
2022-10-28T08:51:22.364Z,1007.74
2022-10-28T08:52:22.235Z,1007.7
2022-10-28T08:53:22.053Z,1007.64
2022-10-28T08:54:22.249Z,1007.68
2022-10-28T08:55:22.540Z,1007.63
2022-10-28T08:56:22.407Z,1007.62
2022-10-28T08:57:22.075Z,1007.62
2022-10-28T08:58:22.279Z,1007.57
2022-10-28T08:59:22.046Z,1007.59
2022-10-28T09:00:22.076Z,1007.62
2022-10-28T09:01:22.210Z,1007.58
2022-10-28T09:02:22.097Z,1007.6
2022-10-28T09:03:22.053Z,1007.58
2022-10-28T09:04:22.158Z,1007.57
2022-10-28T09:05:22.055Z,1007.58
2022-10-28T09:06:22.068Z,1007.59
2022-10-28T09:07:22.076Z,1007.58
2022-10-28T09:08:22.065Z,1007.61
2022-10-28T09:09:22.303Z,1007.63
2022-10-28T09:10:22.041Z,1007.65
2022-10-28T09:11:29.514Z,1007.66
2022-10-28T09:12:22.058Z,1007.63
2022-10-28T09:13:22.046Z,1007.61
2022-10-28T09:14:22.067Z,1007.63
2022-10-28T09:15:22.045Z,1007.6
2022-10-28T09:16:22.207Z,1007.57
2022-10-28T09:17:22.075Z,1007.57
2022-10-28T09:18:22.068Z,1007.56
2022-10-28T09:19:22.126Z,1007.51
2022-10-28T09:20:22.181Z,1007.54
2022-10-28T09:21:22.062Z,1007.49
2022-10-28T09:22:25.059Z,1007.48
2022-10-28T09:23:22.083Z,1007.5
2022-10-28T09:24:22.050Z,1007.52
2022-10-28T09:25:22.053Z,1007.5
2022-10-28T09:26:22.064Z,1007.48
2022-10-28T09:27:22.044Z,1007.49
2022-10-28T09:28:22.083Z,1007.48
2022-10-28T09:29:22.058Z,1007.5
2022-10-28T09:30:22.115Z,1007.51
2022-10-28T09:31:22.064Z,1007.52
2022-10-28T09:32:22.049Z,1007.51
2022-10-28T09:33:22.099Z,1007.51
2022-10-28T09:34:22.044Z,1007.48
2022-10-28T09:35:22.060Z,1007.47
2022-10-28T09:36:22.085Z,1007.48
2022-10-28T09:37:22.070Z,1007.5
2022-10-28T09:38:22.039Z,1007.52
2022-10-28T09:39:29.221Z,1007.49
2022-10-28T09:40:22.053Z,1007.49
2022-10-28T09:41:22.115Z,1007.48
2022-10-28T09:42:22.233Z,1007.48
2022-10-28T09:43:22.047Z,1007.43
2022-10-28T09:44:22.058Z,1007.46
2022-10-28T09:45:22.059Z,1007.41
2022-10-28T09:46:22.049Z,1007.43
2022-10-28T09:47:22.051Z,1007.41
2022-10-28T09:48:22.081Z,1007.42
2022-10-28T09:49:22.062Z,1007.4
2022-10-28T09:50:22.047Z,1007.37
2022-10-28T09:51:22.070Z,1007.39
2022-10-28T09:52:22.067Z,1007.36
2022-10-28T09:53:22.141Z,1007.38
2022-10-28T09:54:22.065Z,1007.37
2022-10-28T09:55:22.053Z,1007.34
2022-10-28T09:56:22.188Z,1007.35
2022-10-28T09:57:22.057Z,1007.35
2022-10-28T09:58:22.284Z,1007.37
2022-10-28T09:59:22.048Z,1007.36
2022-10-28T10:00:22.335Z,1007.38
2022-10-28T10:01:22.673Z,1007.37
2022-10-28T10:02:22.275Z,1007.39
2022-10-28T10:03:22.347Z,1007.43
2022-10-28T10:04:22.342Z,1007.43
2022-10-28T10:05:22.209Z,1007.45
2022-10-28T10:06:22.288Z,1007.44
2022-10-28T10:07:22.485Z,1007.44
2022-10-28T10:08:22.341Z,1007.42
2022-10-28T10:09:22.622Z,1007.47
2022-10-28T10:10:22.415Z,1007.45
2022-10-28T10:11:22.703Z,1007.37
2022-10-28T10:12:22.206Z,1007.42
2022-10-28T10:13:22.521Z,1007.34
2022-10-28T10:14:22.198Z,1007.35
2022-10-28T10:15:22.082Z,1007.32
2022-10-28T10:16:22.407Z,1007.29
2022-10-28T10:17:22.331Z,1007.29
2022-10-28T10:18:22.044Z,1007.32
2022-10-28T10:19:22.286Z,1007.28
2022-10-28T10:20:22.596Z,1007.26
2022-10-28T10:21:22.285Z,1007.23
2022-10-28T10:22:22.055Z,1007.22
2022-10-28T10:23:22.245Z,1007.17
2022-10-28T10:24:22.397Z,1007.19
2022-10-28T10:25:22.051Z,1007.17
2022-10-28T10:26:22.175Z,1007.17
2022-10-28T10:27:22.367Z,1007.14
2022-10-28T10:28:22.041Z,1007.13
2022-10-28T10:29:22.054Z,1007.15
2022-10-28T10:30:22.067Z,1007.12
2022-10-28T10:31:22.052Z,1007.1
2022-10-28T10:32:22.057Z,1007.1
2022-10-28T10:33:22.067Z,1007.12
2022-10-28T10:34:22.072Z,1007.11
2022-10-28T10:35:22.080Z,1007.11
2022-10-28T10:36:22.053Z,1007.11
2022-10-28T10:37:22.061Z,1007.11
2022-10-28T10:38:22.096Z,1007.09
2022-10-28T10:39:22.132Z,1007.13
2022-10-28T10:40:22.062Z,1007.13
2022-10-28T10:41:22.071Z,1007.1
2022-10-28T10:42:22.055Z,1007.1
2022-10-28T10:43:22.056Z,1007.12
2022-10-28T10:44:22.119Z,1007.1
2022-10-28T10:45:22.067Z,1007.12
2022-10-28T10:46:22.044Z,1007.18
2022-10-28T10:47:22.061Z,1007.19
2022-10-28T10:48:22.068Z,1007.13
2022-10-28T10:49:22.087Z,1007.1
2022-10-28T10:50:22.214Z,1007.14
2022-10-28T10:51:22.043Z,1007.15
2022-10-28T10:52:22.040Z,1007.13
2022-10-28T10:53:22.053Z,1007.03
2022-10-28T10:54:22.056Z,1007.12
2022-10-28T10:55:22.047Z,1007.11
2022-10-28T10:56:22.055Z,1007.06
2022-10-28T10:57:22.059Z,1007.08
2022-10-28T10:58:22.213Z,1007.02
2022-10-28T10:59:22.432Z,1007.07
2022-10-28T11:00:22.437Z,1007.08
2022-10-28T11:01:22.460Z,1007.06
2022-10-28T11:02:22.412Z,1007.05
2022-10-28T11:03:22.338Z,1007.04
2022-10-28T11:04:22.339Z,1007.06
2022-10-28T11:05:32.213Z,1007.03
2022-10-28T11:06:26.428Z,1006.98
2022-10-28T11:07:22.350Z,1007.1
2022-10-28T11:08:22.365Z,1006.99
2022-10-28T11:09:22.349Z,1006.98
2022-10-28T11:10:22.109Z,1007.01
2022-10-28T11:11:22.066Z,1006.93
2022-10-28T11:12:22.060Z,1006.99
2022-10-28T11:13:22.117Z,1006.97
2022-10-28T11:14:22.088Z,1006.93
2022-10-28T11:15:22.044Z,1006.9
2022-10-28T11:16:22.045Z,1006.9
2022-10-28T11:17:22.152Z,1006.91
2022-10-28T11:18:22.050Z,1006.91
2022-10-28T11:19:22.092Z,1006.87
2022-10-28T11:20:22.062Z,1006.85
2022-10-28T11:22:22.185Z,1006.81
2022-10-28T11:23:22.069Z,1006.77
2022-10-28T11:24:22.055Z,1006.79
2022-10-28T11:25:22.247Z,1006.79
2022-10-28T11:26:22.063Z,1006.82
2022-10-28T11:27:22.050Z,1006.83
2022-10-28T11:28:22.057Z,1006.77
2022-10-28T11:29:22.054Z,1006.76
2022-10-28T11:30:22.047Z,1006.8
2022-10-28T11:31:22.061Z,1006.77
2022-10-28T11:32:22.062Z,1006.83
2022-10-28T11:33:31.852Z,1006.82
2022-10-28T11:34:22.064Z,1006.8
2022-10-28T11:35:22.054Z,1006.83
2022-10-28T11:36:22.082Z,1006.77
2022-10-28T11:37:22.052Z,1006.81
2022-10-28T11:38:22.040Z,1006.8
2022-10-28T11:39:22.060Z,1006.82
2022-10-28T11:40:22.051Z,1006.82
2022-10-28T11:41:22.046Z,1006.81
2022-10-28T11:42:22.130Z,1006.8
2022-10-28T11:43:22.063Z,1006.82
2022-10-28T11:44:22.056Z,1006.78
2022-10-28T11:45:22.107Z,1006.79
2022-10-28T11:46:22.068Z,1006.83
2022-10-28T11:47:22.062Z,1006.81
2022-10-28T11:48:22.066Z,1006.81
2022-10-28T11:49:22.053Z,1006.8
2022-10-28T11:50:22.063Z,1006.79
2022-10-28T11:51:23.334Z,1006.79
2022-10-28T11:52:22.405Z,1006.8
2022-10-28T11:53:22.668Z,1006.78
2022-10-28T11:54:22.025Z,1006.78
2022-10-28T11:55:22.272Z,1006.74
2022-10-28T11:56:22.632Z,1006.75
2022-10-28T11:57:22.953Z,1006.74
2022-10-28T11:58:22.152Z,1006.71
2022-10-28T11:59:22.618Z,1006.71
2022-10-28T12:00:23.015Z,1006.72
2022-10-28T12:01:22.174Z,1006.73
2022-10-28T12:02:22.620Z,1006.69
2022-10-28T12:03:22.722Z,1006.66
2022-10-28T12:04:22.112Z,1006.65
2022-10-28T12:05:22.436Z,1006.67
2022-10-28T12:06:22.081Z,1006.64
2022-10-28T12:07:22.338Z,1006.7
2022-10-28T12:08:22.644Z,1006.64
2022-10-28T12:09:22.367Z,1006.62
2022-10-28T12:10:22.119Z,1006.69